Airport View

Enter AWOS ICAO identifier for current METAR.

ex. KFNL

KHLX 181255Z AUTO 18011G18KT 150V210 10SM BKN065 OVC075 M01/M08 A3034 RMK AO2 T10061080

18 Jan 2020 12:57

Frequency: 118.375

Phone: 276-728-5897

Other Area AWOS: KMWK - KPSK - KMKJ - KBCB

TAF AMD KBCB 181146Z 1812/1912 12006KT P6SM OVC090 FM181700 18011G21KT P6SM -RAPL SCT015 OVC035 FM182000 19011G21KT P6SM -RA OVC028 WS020/20045KT FM190000 22010G21KT P6SM OVC015 FM191000 28012G26KT P6SM BKN035